sensor_id;sensor_type;location;lat;lon;timestamp;P1;durP1;ratioP1;P2;durP2;ratioP2
25810;SDS011;13645;52.460;13.910;2022-10-18T00:00:00;22.85;;;14.95;;
25810;SDS011;13645;52.460;13.910;2022-10-18T00:02:27;22.58;;;14.90;;
25810;SDS011;13645;52.460;13.910;2022-10-18T00:04:54;26.95;;;15.77;;
25810;SDS011;13645;52.460;13.910;2022-10-18T00:07:20;27.42;;;15.30;;
25810;SDS011;13645;52.460;13.910;2022-10-18T00:09:47;23.83;;;15.63;;
25810;SDS011;13645;52.460;13.910;2022-10-18T00:12:13;28.70;;;15.05;;
25810;SDS011;13645;52.460;13.910;2022-10-18T00:14:40;22.15;;;15.18;;
25810;SDS011;13645;52.460;13.910;2022-10-18T00:17:07;20.35;;;15.73;;
25810;SDS011;13645;52.460;13.910;2022-10-18T00:19:33;22.20;;;15.55;;
25810;SDS011;13645;52.460;13.910;2022-10-18T00:22:00;23.85;;;14.75;;
25810;SDS011;13645;52.460;13.910;2022-10-18T00:24:27;31.08;;;15.65;;
25810;SDS011;13645;52.460;13.910;2022-10-18T00:26:54;20.60;;;15.13;;
25810;SDS011;13645;52.460;13.910;2022-10-18T00:29:20;21.05;;;15.25;;
25810;SDS011;13645;52.460;13.910;2022-10-18T00:31:47;22.90;;;14.95;;
25810;SDS011;13645;52.460;13.910;2022-10-18T00:34:14;22.52;;;14.63;;
25810;SDS011;13645;52.460;13.910;2022-10-18T00:36:42;20.05;;;15.10;;
25810;SDS011;13645;52.460;13.910;2022-10-18T00:39:13;23.83;;;16.17;;
25810;SDS011;13645;52.460;13.910;2022-10-18T00:41:43;25.45;;;15.43;;
25810;SDS011;13645;52.460;13.910;2022-10-18T00:46:38;22.63;;;15.30;;
25810;SDS011;13645;52.460;13.910;2022-10-18T00:49:41;26.83;;;15.57;;
25810;SDS011;13645;52.460;13.910;2022-10-18T00:52:02;29.85;;;15.93;;
25810;SDS011;13645;52.460;13.910;2022-10-18T00:54:36;23.08;;;15.98;;
25810;SDS011;13645;52.460;13.910;2022-10-18T00:57:05;25.10;;;15.90;;
25810;SDS011;13645;52.460;13.910;2022-10-18T00:59:33;27.73;;;15.60;;
25810;SDS011;13645;52.460;13.910;2022-10-18T01:02:00;21.90;;;16.00;;
25810;SDS011;13645;52.460;13.910;2022-10-18T01:04:27;22.23;;;15.10;;
25810;SDS011;13645;52.460;13.910;2022-10-18T01:06:56;28.02;;;16.63;;
25810;SDS011;13645;52.460;13.910;2022-10-18T01:09:44;25.35;;;15.27;;
25810;SDS011;13645;52.460;13.910;2022-10-18T01:17:58;29.27;;;16.23;;
25810;SDS011;13645;52.460;13.910;2022-10-18T01:29:20;21.77;;;16.13;;
25810;SDS011;13645;52.460;13.910;2022-10-18T01:32:40;25.67;;;16.45;;
25810;SDS011;13645;52.460;13.910;2022-10-18T01:37:22;28.38;;;17.55;;
25810;SDS011;13645;52.460;13.910;2022-10-18T01:39:51;24.83;;;16.38;;
25810;SDS011;13645;52.460;13.910;2022-10-18T01:42:21;25.92;;;16.77;;
25810;SDS011;13645;52.460;13.910;2022-10-18T01:44:48;27.00;;;18.38;;
25810;SDS011;13645;52.460;13.910;2022-10-18T01:47:17;24.35;;;16.52;;
25810;SDS011;13645;52.460;13.910;2022-10-18T01:49:45;27.48;;;15.90;;
25810;SDS011;13645;52.460;13.910;2022-10-18T01:52:12;24.85;;;16.75;;
25810;SDS011;13645;52.460;13.910;2022-10-18T01:54:41;24.70;;;16.88;;
25810;SDS011;13645;52.460;13.910;2022-10-18T01:57:21;23.80;;;17.17;;
25810;SDS011;13645;52.460;13.910;2022-10-18T02:00:02;28.08;;;17.50;;
25810;SDS011;13645;52.460;13.910;2022-10-18T02:10:44;30.80;;;17.02;;
25810;SDS011;13645;52.460;13.910;2022-10-18T02:13:17;25.38;;;16.63;;
25810;SDS011;13645;52.460;13.910;2022-10-18T02:15:46;23.30;;;15.45;;
25810;SDS011;13645;52.460;13.910;2022-10-18T02:18:17;24.65;;;16.00;;
25810;SDS011;13645;52.460;13.910;2022-10-18T02:20:49;22.83;;;16.15;;
25810;SDS011;13645;52.460;13.910;2022-10-18T02:23:18;30.95;;;16.85;;
25810;SDS011;13645;52.460;13.910;2022-10-18T02:25:48;20.48;;;15.40;;
25810;SDS011;13645;52.460;13.910;2022-10-18T02:28:15;21.65;;;15.98;;
25810;SDS011;13645;52.460;13.910;2022-10-18T02:33:22;23.63;;;16.02;;
25810;SDS011;13645;52.460;13.910;2022-10-18T02:36:06;22.17;;;14.73;;
25810;SDS011;13645;52.460;13.910;2022-10-18T02:38:41;24.15;;;15.90;;
25810;SDS011;13645;52.460;13.910;2022-10-18T02:41:13;25.70;;;15.98;;
25810;SDS011;13645;52.460;13.910;2022-10-18T02:43:48;24.05;;;16.15;;
25810;SDS011;13645;52.460;13.910;2022-10-18T02:46:15;27.40;;;16.25;;
25810;SDS011;13645;52.460;13.910;2022-10-18T02:48:42;23.35;;;15.90;;
25810;SDS011;13645;52.460;13.910;2022-10-18T02:51:08;22.88;;;16.02;;
25810;SDS011;13645;52.460;13.910;2022-10-18T02:53:35;26.58;;;17.13;;
25810;SDS011;13645;52.460;13.910;2022-10-18T02:56:02;22.73;;;16.15;;
25810;SDS011;13645;52.460;13.910;2022-10-18T02:58:29;23.92;;;16.98;;
25810;SDS011;13645;52.460;13.910;2022-10-18T03:00:56;27.05;;;16.75;;
25810;SDS011;13645;52.460;13.910;2022-10-18T03:03:22;26.88;;;17.17;;
25810;SDS011;13645;52.460;13.910;2022-10-18T03:05:49;26.98;;;16.33;;
25810;SDS011;13645;52.460;13.910;2022-10-18T03:08:17;21.80;;;16.05;;
25810;SDS011;13645;52.460;13.910;2022-10-18T03:10:44;26.27;;;16.77;;
25810;SDS011;13645;52.460;13.910;2022-10-18T03:13:12;22.92;;;16.35;;
25810;SDS011;13645;52.460;13.910;2022-10-18T03:15:39;23.92;;;16.92;;
25810;SDS011;13645;52.460;13.910;2022-10-18T03:18:05;24.60;;;16.40;;
25810;SDS011;13645;52.460;13.910;2022-10-18T03:20:32;23.33;;;16.77;;
25810;SDS011;13645;52.460;13.910;2022-10-18T03:22:59;31.42;;;16.13;;
25810;SDS011;13645;52.460;13.910;2022-10-18T03:25:26;24.50;;;16.48;;
25810;SDS011;13645;52.460;13.910;2022-10-18T03:27:52;30.63;;;18.00;;
25810;SDS011;13645;52.460;13.910;2022-10-18T03:30:19;29.52;;;17.38;;
25810;SDS011;13645;52.460;13.910;2022-10-18T03:32:46;28.75;;;18.00;;
25810;SDS011;13645;52.460;13.910;2022-10-18T03:35:12;27.30;;;18.83;;
25810;SDS011;13645;52.460;13.910;2022-10-18T03:37:41;28.23;;;18.95;;
25810;SDS011;13645;52.460;13.910;2022-10-18T03:40:08;25.88;;;16.70;;
25810;SDS011;13645;52.460;13.910;2022-10-18T03:42:35;30.20;;;17.83;;
25810;SDS011;13645;52.460;13.910;2022-10-18T03:45:01;26.20;;;18.33;;
25810;SDS011;13645;52.460;13.910;2022-10-18T03:47:28;26.65;;;17.58;;
25810;SDS011;13645;52.460;13.910;2022-10-18T03:49:55;27.45;;;18.48;;
25810;SDS011;13645;52.460;13.910;2022-10-18T03:52:22;31.67;;;18.13;;
25810;SDS011;13645;52.460;13.910;2022-10-18T03:54:49;27.25;;;17.38;;
25810;SDS011;13645;52.460;13.910;2022-10-18T03:57:16;34.20;;;19.00;;
25810;SDS011;13645;52.460;13.910;2022-10-18T03:59:42;28.40;;;18.92;;
25810;SDS011;13645;52.460;13.910;2022-10-18T04:02:09;33.20;;;18.17;;
25810;SDS011;13645;52.460;13.910;2022-10-18T04:04:35;31.02;;;20.35;;
25810;SDS011;13645;52.460;13.910;2022-10-18T04:07:02;33.58;;;20.02;;
25810;SDS011;13645;52.460;13.910;2022-10-18T04:09:43;30.02;;;17.42;;
25810;SDS011;13645;52.460;13.910;2022-10-18T04:12:10;26.38;;;17.90;;
25810;SDS011;13645;52.460;13.910;2022-10-18T04:14:36;22.67;;;16.73;;
25810;SDS011;13645;52.460;13.910;2022-10-18T04:17:05;21.92;;;15.18;;
25810;SDS011;13645;52.460;13.910;2022-10-18T04:19:32;20.83;;;15.18;;
25810;SDS011;13645;52.460;13.910;2022-10-18T04:22:02;26.05;;;15.63;;
25810;SDS011;13645;52.460;13.910;2022-10-18T04:24:29;29.75;;;15.80;;
25810;SDS011;13645;52.460;13.910;2022-10-18T04:26:55;29.15;;;15.75;;
25810;SDS011;13645;52.460;13.910;2022-10-18T04:29:27;27.20;;;17.67;;
25810;SDS011;13645;52.460;13.910;2022-10-18T04:31:54;24.63;;;17.95;;
25810;SDS011;13645;52.460;13.910;2022-10-18T04:34:29;22.90;;;15.93;;
25810;SDS011;13645;52.460;13.910;2022-10-18T04:37:23;24.48;;;15.85;;
25810;SDS011;13645;52.460;13.910;2022-10-18T04:39:49;27.90;;;17.23;;
25810;SDS011;13645;52.460;13.910;2022-10-18T04:42:31;26.75;;;15.98;;
25810;SDS011;13645;52.460;13.910;2022-10-18T04:45:20;29.08;;;15.85;;
25810;SDS011;13645;52.460;13.910;2022-10-18T04:52:25;24.90;;;15.80;;
25810;SDS011;13645;52.460;13.910;2022-10-18T05:04:56;27.73;;;17.08;;
25810;SDS011;13645;52.460;13.910;2022-10-18T05:07:39;28.20;;;16.63;;
25810;SDS011;13645;52.460;13.910;2022-10-18T05:10:10;28.77;;;18.48;;
25810;SDS011;13645;52.460;13.910;2022-10-18T05:12:37;25.38;;;17.05;;
25810;SDS011;13645;52.460;13.910;2022-10-18T05:15:10;24.33;;;16.63;;
25810;SDS011;13645;52.460;13.910;2022-10-18T05:17:38;29.13;;;17.33;;
25810;SDS011;13645;52.460;13.910;2022-10-18T05:20:11;24.75;;;16.52;;
25810;SDS011;13645;52.460;13.910;2022-10-18T05:22:43;29.33;;;17.75;;
25810;SDS011;13645;52.460;13.910;2022-10-18T05:25:15;22.92;;;16.33;;
25810;SDS011;13645;52.460;13.910;2022-10-18T05:27:45;25.25;;;17.50;;
25810;SDS011;13645;52.460;13.910;2022-10-18T05:30:12;30.95;;;17.88;;
25810;SDS011;13645;52.460;13.910;2022-10-18T05:32:59;29.60;;;19.27;;
25810;SDS011;13645;52.460;13.910;2022-10-18T05:36:41;27.25;;;18.10;;
25810;SDS011;13645;52.460;13.910;2022-10-18T05:39:07;28.00;;;19.20;;
25810;SDS011;13645;52.460;13.910;2022-10-18T05:41:34;33.33;;;19.30;;
25810;SDS011;13645;52.460;13.910;2022-10-18T05:44:03;30.70;;;18.88;;
25810;SDS011;13645;52.460;13.910;2022-10-18T05:46:31;31.45;;;19.38;;
25810;SDS011;13645;52.460;13.910;2022-10-18T05:48:58;31.02;;;18.83;;
25810;SDS011;13645;52.460;13.910;2022-10-18T05:51:27;40.65;;;18.83;;
25810;SDS011;13645;52.460;13.910;2022-10-18T05:53:54;27.73;;;19.55;;
25810;SDS011;13645;52.460;13.910;2022-10-18T05:56:24;28.60;;;18.50;;
25810;SDS011;13645;52.460;13.910;2022-10-18T05:58:51;36.88;;;22.85;;
25810;SDS011;13645;52.460;13.910;2022-10-18T06:01:18;67.13;;;41.08;;
25810;SDS011;13645;52.460;13.910;2022-10-18T06:03:46;50.92;;;30.60;;
25810;SDS011;13645;52.460;13.910;2022-10-18T06:06:16;37.63;;;21.40;;
25810;SDS011;13645;52.460;13.910;2022-10-18T06:08:48;43.97;;;21.63;;
25810;SDS011;13645;52.460;13.910;2022-10-18T06:15:46;42.17;;;19.63;;
25810;SDS011;13645;52.460;13.910;2022-10-18T06:18:41;34.17;;;19.77;;
25810;SDS011;13645;52.460;13.910;2022-10-18T06:24:34;30.15;;;19.27;;
25810;SDS011;13645;52.460;13.910;2022-10-18T06:27:07;28.55;;;18.35;;
25810;SDS011;13645;52.460;13.910;2022-10-18T06:37:34;42.10;;;21.30;;
25810;SDS011;13645;52.460;13.910;2022-10-18T06:40:55;34.75;;;21.92;;
25810;SDS011;13645;52.460;13.910;2022-10-18T06:51:52;37.80;;;19.42;;
25810;SDS011;13645;52.460;13.910;2022-10-18T06:54:26;30.05;;;18.85;;
25810;SDS011;13645;52.460;13.910;2022-10-18T12:01:38;5.35;;;4.85;;
25810;SDS011;13645;52.460;13.910;2022-10-18T12:14:58;6.45;;;4.03;;
25810;SDS011;13645;52.460;13.910;2022-10-18T12:20:16;8.02;;;3.83;;
25810;SDS011;13645;52.460;13.910;2022-10-18T12:25:31;6.93;;;4.10;;
25810;SDS011;13645;52.460;13.910;2022-10-18T12:28:11;4.75;;;3.80;;
25810;SDS011;13645;52.460;13.910;2022-10-18T12:31:02;6.07;;;4.32;;
25810;SDS011;13645;52.460;13.910;2022-10-18T12:33:44;7.75;;;4.53;;
25810;SDS011;13645;52.460;13.910;2022-10-18T12:38:57;6.82;;;4.25;;
25810;SDS011;13645;52.460;13.910;2022-10-18T12:41:30;7.30;;;4.68;;
25810;SDS011;13645;52.460;13.910;2022-10-18T12:44:03;5.53;;;3.72;;
25810;SDS011;13645;52.460;13.910;2022-10-18T12:46:45;5.45;;;3.95;;
25810;SDS011;13645;52.460;13.910;2022-10-18T12:49:23;5.25;;;4.20;;
25810;SDS011;13645;52.460;13.910;2022-10-18T12:55:06;7.03;;;4.20;;
25810;SDS011;13645;52.460;13.910;2022-10-18T13:13:44;7.47;;;4.60;;
25810;SDS011;13645;52.460;13.910;2022-10-18T13:22:07;8.95;;;5.05;;
25810;SDS011;13645;52.460;13.910;2022-10-18T13:24:57;6.20;;;4.30;;
25810;SDS011;13645;52.460;13.910;2022-10-18T13:27:35;8.95;;;4.60;;
25810;SDS011;13645;52.460;13.910;2022-10-18T13:30:26;7.88;;;4.78;;
25810;SDS011;13645;52.460;13.910;2022-10-18T13:38:36;6.88;;;5.18;;
25810;SDS011;13645;52.460;13.910;2022-10-18T13:41:05;8.88;;;5.85;;
25810;SDS011;13645;52.460;13.910;2022-10-18T13:51:32;13.13;;;9.63;;
25810;SDS011;13645;52.460;13.910;2022-10-18T13:54:13;19.33;;;10.40;;
25810;SDS011;13645;52.460;13.910;2022-10-18T13:56:53;18.05;;;10.90;;
25810;SDS011;13645;52.460;13.910;2022-10-18T13:59:44;18.20;;;11.45;;
25810;SDS011;13645;52.460;13.910;2022-10-18T14:02:27;16.77;;;10.50;;
25810;SDS011;13645;52.460;13.910;2022-10-18T14:05:23;17.52;;;9.70;;
25810;SDS011;13645;52.460;13.910;2022-10-18T14:07:56;18.33;;;10.07;;
25810;SDS011;13645;52.460;13.910;2022-10-18T14:10:51;13.55;;;8.85;;
25810;SDS011;13645;52.460;13.910;2022-10-18T14:13:29;16.08;;;9.85;;
25810;SDS011;13645;52.460;13.910;2022-10-18T14:16:05;17.20;;;9.27;;
25810;SDS011;13645;52.460;13.910;2022-10-18T14:18:42;13.15;;;9.13;;
25810;SDS011;13645;52.460;13.910;2022-10-18T14:21:17;14.02;;;9.13;;
25810;SDS011;13645;52.460;13.910;2022-10-18T14:23:56;15.80;;;8.60;;
25810;SDS011;13645;52.460;13.910;2022-10-18T14:26:22;12.18;;;8.20;;
25810;SDS011;13645;52.460;13.910;2022-10-18T14:29:02;12.85;;;7.68;;
25810;SDS011;13645;52.460;13.910;2022-10-18T14:31:31;14.30;;;8.23;;
25810;SDS011;13645;52.460;13.910;2022-10-18T14:33:59;9.63;;;7.68;;
25810;SDS011;13645;52.460;13.910;2022-10-18T14:36:28;12.23;;;7.93;;
25810;SDS011;13645;52.460;13.910;2022-10-18T14:39:02;9.93;;;7.05;;
25810;SDS011;13645;52.460;13.910;2022-10-18T14:41:31;10.80;;;7.57;;
25810;SDS011;13645;52.460;13.910;2022-10-18T14:49:10;10.25;;;7.50;;
25810;SDS011;13645;52.460;13.910;2022-10-18T14:51:39;13.50;;;8.35;;
25810;SDS011;13645;52.460;13.910;2022-10-18T14:56:57;12.48;;;8.10;;
25810;SDS011;13645;52.460;13.910;2022-10-18T14:59:28;12.98;;;7.95;;
25810;SDS011;13645;52.460;13.910;2022-10-18T15:04:27;9.18;;;7.50;;
25810;SDS011;13645;52.460;13.910;2022-10-18T15:07:01;10.02;;;7.15;;
25810;SDS011;13645;52.460;13.910;2022-10-18T15:09:30;10.88;;;7.38;;
25810;SDS011;13645;52.460;13.910;2022-10-18T15:12:01;8.48;;;7.00;;
25810;SDS011;13645;52.460;13.910;2022-10-18T15:14:29;12.82;;;7.53;;
25810;SDS011;13645;52.460;13.910;2022-10-18T15:16:58;12.45;;;7.93;;
25810;SDS011;13645;52.460;13.910;2022-10-18T15:19:30;11.73;;;8.02;;
25810;SDS011;13645;52.460;13.910;2022-10-18T15:25:02;14.05;;;7.28;;
25810;SDS011;13645;52.460;13.910;2022-10-18T15:27:57;10.02;;;6.80;;
25810;SDS011;13645;52.460;13.910;2022-10-18T15:30:30;12.30;;;7.70;;
25810;SDS011;13645;52.460;13.910;2022-10-18T15:33:04;12.18;;;7.00;;
25810;SDS011;13645;52.460;13.910;2022-10-18T15:35:36;12.75;;;7.03;;
25810;SDS011;13645;52.460;13.910;2022-10-18T15:40:41;8.93;;;7.05;;
25810;SDS011;13645;52.460;13.910;2022-10-18T15:43:32;11.70;;;6.80;;
25810;SDS011;13645;52.460;13.910;2022-10-18T15:45:59;12.82;;;7.75;;
25810;SDS011;13645;52.460;13.910;2022-10-18T15:48:36;12.32;;;7.68;;
25810;SDS011;13645;52.460;13.910;2022-10-18T15:51:11;11.85;;;8.88;;
25810;SDS011;13645;52.460;13.910;2022-10-18T15:53:57;10.65;;;7.18;;
25810;SDS011;13645;52.460;13.910;2022-10-18T15:56:29;15.60;;;8.48;;
25810;SDS011;13645;52.460;13.910;2022-10-18T15:58:59;10.63;;;7.95;;
25810;SDS011;13645;52.460;13.910;2022-10-18T16:04:06;12.38;;;9.02;;
25810;SDS011;13645;52.460;13.910;2022-10-18T16:06:37;19.73;;;10.20;;
25810;SDS011;13645;52.460;13.910;2022-10-18T16:09:05;14.90;;;9.55;;
25810;SDS011;13645;52.460;13.910;2022-10-18T16:11:33;17.30;;;9.60;;
25810;SDS011;13645;52.460;13.910;2022-10-18T16:14:01;17.27;;;10.48;;
25810;SDS011;13645;52.460;13.910;2022-10-18T16:16:29;15.00;;;9.73;;
25810;SDS011;13645;52.460;13.910;2022-10-18T16:18:57;15.13;;;9.85;;
25810;SDS011;13645;52.460;13.910;2022-10-18T16:21:29;19.17;;;10.48;;
25810;SDS011;13645;52.460;13.910;2022-10-18T16:23:58;17.75;;;10.18;;
25810;SDS011;13645;52.460;13.910;2022-10-18T16:26:25;15.73;;;10.82;;
25810;SDS011;13645;52.460;13.910;2022-10-18T16:28:53;19.00;;;11.10;;
25810;SDS011;13645;52.460;13.910;2022-10-18T16:31:21;22.75;;;11.93;;
25810;SDS011;13645;52.460;13.910;2022-10-18T16:33:50;24.13;;;13.07;;
25810;SDS011;13645;52.460;13.910;2022-10-18T16:36:21;22.48;;;14.60;;
25810;SDS011;13645;52.460;13.910;2022-10-18T16:38:54;25.88;;;13.10;;
25810;SDS011;13645;52.460;13.910;2022-10-18T16:41:22;23.00;;;13.90;;
25810;SDS011;13645;52.460;13.910;2022-10-18T16:43:49;32.65;;;17.58;;
25810;SDS011;13645;52.460;13.910;2022-10-18T16:46:25;31.90;;;18.65;;
25810;SDS011;13645;52.460;13.910;2022-10-18T16:48:54;24.58;;;14.38;;
25810;SDS011;13645;52.460;13.910;2022-10-18T16:51:22;20.75;;;14.30;;
25810;SDS011;13645;52.460;13.910;2022-10-18T16:53:49;17.15;;;13.02;;
25810;SDS011;13645;52.460;13.910;2022-10-18T16:56:28;23.10;;;15.90;;
25810;SDS011;13645;52.460;13.910;2022-10-18T16:58:56;24.42;;;16.45;;
25810;SDS011;13645;52.460;13.910;2022-10-18T17:01:23;38.63;;;24.08;;
25810;SDS011;13645;52.460;13.910;2022-10-18T17:03:51;36.28;;;25.33;;
25810;SDS011;13645;52.460;13.910;2022-10-18T17:06:28;35.03;;;21.48;;
25810;SDS011;13645;52.460;13.910;2022-10-18T17:08:57;28.77;;;19.05;;
25810;SDS011;13645;52.460;13.910;2022-10-18T17:11:25;31.42;;;19.15;;
25810;SDS011;13645;52.460;13.910;2022-10-18T17:13:53;20.67;;;17.35;;
25810;SDS011;13645;52.460;13.910;2022-10-18T17:18:54;30.15;;;17.15;;
25810;SDS011;13645;52.460;13.910;2022-10-18T17:21:23;27.10;;;15.73;;
25810;SDS011;13645;52.460;13.910;2022-10-18T17:23:51;26.80;;;17.95;;
25810;SDS011;13645;52.460;13.910;2022-10-18T17:26:20;27.52;;;18.27;;
25810;SDS011;13645;52.460;13.910;2022-10-18T17:28:55;29.20;;;19.55;;
25810;SDS011;13645;52.460;13.910;2022-10-18T17:31:23;30.33;;;18.27;;
25810;SDS011;13645;52.460;13.910;2022-10-18T17:33:50;38.42;;;23.33;;
25810;SDS011;13645;52.460;13.910;2022-10-18T17:36:19;35.90;;;22.20;;
25810;SDS011;13645;52.460;13.910;2022-10-18T17:38:48;25.83;;;17.58;;
25810;SDS011;13645;52.460;13.910;2022-10-18T17:41:16;49.72;;;25.70;;
25810;SDS011;13645;52.460;13.910;2022-10-18T17:43:42;31.42;;;19.23;;
25810;SDS011;13645;52.460;13.910;2022-10-18T17:46:10;30.20;;;17.13;;
25810;SDS011;13645;52.460;13.910;2022-10-18T17:48:38;29.42;;;15.80;;
25810;SDS011;13645;52.460;13.910;2022-10-18T17:51:06;23.63;;;15.25;;
25810;SDS011;13645;52.460;13.910;2022-10-18T17:53:38;26.38;;;14.20;;
25810;SDS011;13645;52.460;13.910;2022-10-18T17:56:04;21.52;;;13.77;;
25810;SDS011;13645;52.460;13.910;2022-10-18T17:58:33;20.70;;;13.10;;
25810;SDS011;13645;52.460;13.910;2022-10-18T18:01:20;15.57;;;12.50;;
25810;SDS011;13645;52.460;13.910;2022-10-18T18:03:48;13.80;;;9.48;;
25810;SDS011;13645;52.460;13.910;2022-10-18T18:06:19;11.00;;;8.30;;
25810;SDS011;13645;52.460;13.910;2022-10-18T18:08:48;13.43;;;8.30;;
25810;SDS011;13645;52.460;13.910;2022-10-18T18:11:15;11.05;;;7.97;;
25810;SDS011;13645;52.460;13.910;2022-10-18T18:13:43;12.27;;;9.52;;
25810;SDS011;13645;52.460;13.910;2022-10-18T18:16:11;13.02;;;9.05;;
25810;SDS011;13645;52.460;13.910;2022-10-18T18:18:48;18.60;;;10.07;;
25810;SDS011;13645;52.460;13.910;2022-10-18T18:21:17;12.95;;;8.98;;
25810;SDS011;13645;52.460;13.910;2022-10-18T18:23:44;16.67;;;10.20;;
25810;SDS011;13645;52.460;13.910;2022-10-18T18:26:11;39.92;;;11.45;;
25810;SDS011;13645;52.460;13.910;2022-10-18T18:28:38;30.17;;;11.95;;
25810;SDS011;13645;52.460;13.910;2022-10-18T18:31:06;28.95;;;10.82;;
25810;SDS011;13645;52.460;13.910;2022-10-18T18:33:35;22.75;;;9.57;;
25810;SDS011;13645;52.460;13.910;2022-10-18T18:36:03;48.92;;;9.43;;
25810;SDS011;13645;52.460;13.910;2022-10-18T18:38:31;18.65;;;8.13;;
25810;SDS011;13645;52.460;13.910;2022-10-18T18:43:35;35.22;;;9.55;;
25810;SDS011;13645;52.460;13.910;2022-10-18T18:46:03;18.52;;;8.02;;
25810;SDS011;13645;52.460;13.910;2022-10-18T18:48:31;11.77;;;8.60;;
25810;SDS011;13645;52.460;13.910;2022-10-18T18:50:59;13.30;;;9.82;;
25810;SDS011;13645;52.460;13.910;2022-10-18T18:53:27;11.13;;;9.13;;
25810;SDS011;13645;52.460;13.910;2022-10-18T18:55:59;11.75;;;9.32;;
25810;SDS011;13645;52.460;13.910;2022-10-18T18:58:27;10.50;;;8.05;;
25810;SDS011;13645;52.460;13.910;2022-10-18T19:00:54;11.50;;;8.70;;
25810;SDS011;13645;52.460;13.910;2022-10-18T19:03:20;11.73;;;9.30;;
25810;SDS011;13645;52.460;13.910;2022-10-18T19:05:47;11.75;;;9.85;;
25810;SDS011;13645;52.460;13.910;2022-10-18T19:08:13;18.60;;;11.98;;
25810;SDS011;13645;52.460;13.910;2022-10-18T19:10:40;14.70;;;11.48;;
25810;SDS011;13645;52.460;13.910;2022-10-18T19:13:06;23.88;;;17.58;;
25810;SDS011;13645;52.460;13.910;2022-10-18T19:15:33;35.00;;;23.60;;
25810;SDS011;13645;52.460;13.910;2022-10-18T19:18:00;29.35;;;19.95;;
25810;SDS011;13645;52.460;13.910;2022-10-18T19:20:26;32.63;;;21.40;;
25810;SDS011;13645;52.460;13.910;2022-10-18T19:22:53;27.20;;;20.02;;
25810;SDS011;13645;52.460;13.910;2022-10-18T19:25:20;40.78;;;27.33;;
25810;SDS011;13645;52.460;13.910;2022-10-18T19:27:52;107.97;;;63.42;;
25810;SDS011;13645;52.460;13.910;2022-10-18T19:30:18;93.53;;;54.00;;
25810;SDS011;13645;52.460;13.910;2022-10-18T19:32:45;79.40;;;51.00;;
25810;SDS011;13645;52.460;13.910;2022-10-18T19:35:11;73.78;;;36.38;;
25810;SDS011;13645;52.460;13.910;2022-10-18T19:37:38;137.68;;;37.70;;
25810;SDS011;13645;52.460;13.910;2022-10-18T19:40:05;60.95;;;25.58;;
25810;SDS011;13645;52.460;13.910;2022-10-18T19:42:33;41.80;;;19.52;;
25810;SDS011;13645;52.460;13.910;2022-10-18T19:45:01;64.18;;;16.35;;
25810;SDS011;13645;52.460;13.910;2022-10-18T19:47:28;29.90;;;13.95;;
25810;SDS011;13645;52.460;13.910;2022-10-18T19:49:54;21.77;;;13.25;;
25810;SDS011;13645;52.460;13.910;2022-10-18T19:52:21;20.50;;;13.57;;
25810;SDS011;13645;52.460;13.910;2022-10-18T19:54:48;19.48;;;13.15;;
25810;SDS011;13645;52.460;13.910;2022-10-18T19:57:15;24.35;;;16.77;;
25810;SDS011;13645;52.460;13.910;2022-10-18T19:59:41;65.15;;;21.77;;
25810;SDS011;13645;52.460;13.910;2022-10-18T20:02:11;26.90;;;16.02;;
25810;SDS011;13645;52.460;13.910;2022-10-18T20:04:39;25.35;;;16.63;;
25810;SDS011;13645;52.460;13.910;2022-10-18T20:07:06;29.60;;;19.13;;
25810;SDS011;13645;52.460;13.910;2022-10-18T20:09:33;25.15;;;17.85;;
25810;SDS011;13645;52.460;13.910;2022-10-18T20:11:59;21.35;;;14.95;;
25810;SDS011;13645;52.460;13.910;2022-10-18T20:14:26;21.30;;;11.98;;
25810;SDS011;13645;52.460;13.910;2022-10-18T20:16:53;17.70;;;11.65;;
25810;SDS011;13645;52.460;13.910;2022-10-18T20:19:19;18.48;;;13.23;;
25810;SDS011;13645;52.460;13.910;2022-10-18T20:21:46;24.08;;;13.85;;
25810;SDS011;13645;52.460;13.910;2022-10-18T20:24:12;23.33;;;13.73;;
25810;SDS011;13645;52.460;13.910;2022-10-18T20:26:39;18.92;;;13.68;;
25810;SDS011;13645;52.460;13.910;2022-10-18T20:29:06;24.65;;;14.73;;
25810;SDS011;13645;52.460;13.910;2022-10-18T20:31:33;23.75;;;14.52;;
25810;SDS011;13645;52.460;13.910;2022-10-18T20:34:04;21.38;;;12.30;;
25810;SDS011;13645;52.460;13.910;2022-10-18T20:36:33;25.42;;;12.98;;
25810;SDS011;13645;52.460;13.910;2022-10-18T20:39:00;19.30;;;13.55;;
25810;SDS011;13645;52.460;13.910;2022-10-18T20:41:28;22.73;;;13.02;;
25810;SDS011;13645;52.460;13.910;2022-10-18T20:43:58;22.67;;;12.60;;
25810;SDS011;13645;52.460;13.910;2022-10-18T20:46:28;23.25;;;12.75;;
25810;SDS011;13645;52.460;13.910;2022-10-18T20:48:56;22.83;;;13.20;;
25810;SDS011;13645;52.460;13.910;2022-10-18T20:51:23;22.63;;;12.07;;
25810;SDS011;13645;52.460;13.910;2022-10-18T20:53:50;24.63;;;11.73;;
25810;SDS011;13645;52.460;13.910;2022-10-18T20:56:18;24.30;;;11.00;;
25810;SDS011;13645;52.460;13.910;2022-10-18T20:58:46;19.80;;;11.23;;
25810;SDS011;13645;52.460;13.910;2022-10-18T21:03:42;15.70;;;10.70;;
25810;SDS011;13645;52.460;13.910;2022-10-18T21:06:11;18.92;;;11.48;;
25810;SDS011;13645;52.460;13.910;2022-10-18T21:08:40;18.88;;;10.20;;
25810;SDS011;13645;52.460;13.910;2022-10-18T21:11:07;26.70;;;11.27;;
25810;SDS011;13645;52.460;13.910;2022-10-18T21:13:34;17.85;;;10.48;;
25810;SDS011;13645;52.460;13.910;2022-10-18T21:16:01;22.15;;;10.55;;
25810;SDS011;13645;52.460;13.910;2022-10-18T21:18:31;15.18;;;9.85;;
25810;SDS011;13645;52.460;13.910;2022-10-18T21:21:09;18.52;;;9.57;;
25810;SDS011;13645;52.460;13.910;2022-10-18T21:23:43;18.35;;;10.40;;
25810;SDS011;13645;52.460;13.910;2022-10-18T21:26:15;14.20;;;10.10;;
25810;SDS011;13645;52.460;13.910;2022-10-18T21:28:43;19.88;;;9.88;;
25810;SDS011;13645;52.460;13.910;2022-10-18T21:31:15;19.50;;;9.90;;
25810;SDS011;13645;52.460;13.910;2022-10-18T21:33:45;20.15;;;10.02;;
25810;SDS011;13645;52.460;13.910;2022-10-18T21:36:13;15.93;;;9.45;;
25810;SDS011;13645;52.460;13.910;2022-10-18T21:38:42;17.45;;;8.65;;
25810;SDS011;13645;52.460;13.910;2022-10-18T21:41:11;15.63;;;8.82;;
25810;SDS011;13645;52.460;13.910;2022-10-18T21:43:40;16.48;;;8.32;;
25810;SDS011;13645;52.460;13.910;2022-10-18T21:46:08;18.15;;;8.20;;
25810;SDS011;13645;52.460;13.910;2022-10-18T21:48:37;15.32;;;8.30;;
25810;SDS011;13645;52.460;13.910;2022-10-18T21:51:07;15.63;;;8.95;;
25810;SDS011;13645;52.460;13.910;2022-10-18T21:53:34;20.83;;;8.38;;
25810;SDS011;13645;52.460;13.910;2022-10-18T21:56:08;13.77;;;8.10;;
25810;SDS011;13645;52.460;13.910;2022-10-18T21:58:38;19.45;;;8.40;;
25810;SDS011;13645;52.460;13.910;2022-10-18T22:01:06;17.58;;;8.20;;
25810;SDS011;13645;52.460;13.910;2022-10-18T22:03:34;17.45;;;9.13;;
25810;SDS011;13645;52.460;13.910;2022-10-18T22:06:02;24.40;;;9.52;;
25810;SDS011;13645;52.460;13.910;2022-10-18T22:08:32;16.77;;;8.13;;
25810;SDS011;13645;52.460;13.910;2022-10-18T22:11:00;17.35;;;8.23;;